Terminal Aerodrome Forecast
Issued by NWS Cleveland, OH

Home | Current Version | Previous Version | Graphics & Text | Print | Product List | Glossary Off
Versions: 1 2 3 4 5 6 7 8 9 10 11 12 13 14 15 16 17 18 19 20 21

340
FTUS41 KCLE 101424 AAA
TAFTOL
TAF AMD
KTOL 101424Z 1014/1112 26015KT P6SM SCT015 OVC045
      TEMPO 1015/1017 1 1/2SM -SHSN BKN015
     FM101700 28015G25KT P6SM VCSH SCT025 OVC035
     FM110400 28010KT P6SM BKN045=

USA.gov is the U.S. government's official web portal to all federal, state and local government web resources and services.